createdAt,value
2019-03-12T00:00:23.974Z,11.83
2019-03-12T00:02:52.689Z,11.74
2019-03-12T00:05:21.411Z,11.59
2019-03-12T00:07:50.170Z,11.50
2019-03-12T00:10:18.890Z,11.43
2019-03-12T00:12:47.610Z,11.43
2019-03-12T00:15:16.609Z,11.29
2019-03-12T00:17:45.326Z,11.05
2019-03-12T00:20:14.043Z,10.82
2019-03-12T00:22:42.798Z,10.95
2019-03-12T00:25:11.524Z,10.96
2019-03-12T00:27:40.259Z,10.75
2019-03-12T00:30:10.881Z,10.81
2019-03-12T00:32:39.610Z,10.78
2019-03-12T00:35:08.837Z,10.81
2019-03-12T00:37:37.628Z,10.76
2019-03-12T00:40:07.858Z,10.75
2019-03-12T00:42:36.591Z,10.73
2019-03-12T00:45:08.481Z,10.77
2019-03-12T00:47:37.194Z,10.79
2019-03-12T00:50:10.459Z,10.69
2019-03-12T00:52:39.216Z,10.68
2019-03-12T00:55:09.338Z,10.69
2019-03-12T00:57:38.253Z,10.73
2019-03-12T01:00:12.591Z,10.73
2019-03-12T01:02:41.305Z,10.57
2019-03-12T01:05:10.214Z,10.63
2019-03-12T01:07:38.973Z,10.62
2019-03-12T01:10:13.860Z,10.49
2019-03-12T01:12:42.677Z,10.37
2019-03-12T01:15:13.774Z,10.35
2019-03-12T01:17:42.490Z,10.27
2019-03-12T01:20:15.346Z,10.33
2019-03-12T01:22:44.104Z,10.21
2019-03-12T01:25:14.018Z,10.27
2019-03-12T01:27:42.736Z,10.10
2019-03-12T01:30:18.999Z,10.14
2019-03-12T01:32:47.708Z,9.98
2019-03-12T01:35:16.428Z,10.04
2019-03-12T01:37:45.220Z,10.00
2019-03-12T01:40:14.738Z,10.04
2019-03-12T01:42:43.449Z,9.99
2019-03-12T01:45:14.759Z,10.00
2019-03-12T01:47:43.919Z,9.87
2019-03-12T01:50:14.596Z,9.98
2019-03-12T01:52:43.482Z,9.97
2019-03-12T01:55:16.865Z,9.94
2019-03-12T01:57:45.579Z,10.05
2019-03-12T02:00:18.307Z,10.06
2019-03-12T02:02:47.021Z,10.04
2019-03-12T02:05:15.737Z,9.94
2019-03-12T02:07:44.624Z,9.99
2019-03-12T02:10:14.545Z,9.97
2019-03-12T02:12:43.252Z,9.93
2019-03-12T02:15:16.407Z,9.83
2019-03-12T02:17:45.126Z,9.75
2019-03-12T02:20:18.293Z,9.78
2019-03-12T02:22:47.144Z,9.74
2019-03-12T02:25:20.015Z,9.67
2019-03-12T02:27:48.823Z,9.70
2019-03-12T02:30:21.381Z,9.56
2019-03-12T02:32:50.105Z,9.56
2019-03-12T02:35:18.831Z,9.59
2019-03-12T02:37:47.621Z,9.53
2019-03-12T02:40:16.950Z,9.43
2019-03-12T02:42:45.674Z,9.40
2019-03-12T02:45:15.915Z,9.37
2019-03-12T02:47:44.608Z,9.37
2019-03-12T02:50:14.422Z,9.37
2019-03-12T02:52:43.804Z,9.33
2019-03-12T02:55:13.324Z,9.22
2019-03-12T02:57:42.032Z,9.10
2019-03-12T03:00:20.482Z,9.07
2019-03-12T03:02:49.198Z,9.07
2019-03-12T03:05:18.005Z,8.94
2019-03-12T03:07:54.242Z,8.98
2019-03-12T03:10:23.052Z,8.90
2019-03-12T03:12:52.064Z,8.83
2019-03-12T03:15:30.536Z,8.86
2019-03-12T03:17:59.246Z,8.80
2019-03-12T03:20:27.960Z,8.78
2019-03-12T03:22:56.810Z,8.76
2019-03-12T03:25:25.524Z,8.68
2019-03-12T03:27:54.252Z,8.64
2019-03-12T03:30:24.508Z,8.55
2019-03-12T03:32:53.612Z,8.59
2019-03-12T03:35:22.366Z,8.62
2019-03-12T03:37:51.178Z,8.65
2019-03-12T03:40:21.162Z,8.59
2019-03-12T03:42:50.062Z,8.55
2019-03-12T03:45:19.542Z,8.60
2019-03-12T03:47:48.270Z,8.66
2019-03-12T03:50:18.363Z,8.65
2019-03-12T03:52:47.185Z,8.65
2019-03-12T03:55:18.163Z,8.75
2019-03-12T03:57:46.868Z,8.70
2019-03-12T04:00:24.087Z,8.77
2019-03-12T04:02:52.780Z,8.88
2019-03-12T04:05:21.600Z,9.06
2019-03-12T04:07:50.383Z,9.02
2019-03-12T04:10:19.116Z,9.19
2019-03-12T04:12:47.798Z,9.22
2019-03-12T04:15:17.965Z,9.15
2019-03-12T04:17:47.113Z,9.06
2019-03-12T04:20:18.051Z,8.87
2019-03-12T04:22:46.923Z,8.81
2019-03-12T04:25:15.631Z,8.69
2019-03-12T04:27:44.344Z,8.59
2019-03-12T04:30:20.274Z,8.54
2019-03-12T04:32:49.097Z,8.42
2019-03-12T04:35:23.871Z,8.32
2019-03-12T04:37:52.573Z,8.29
2019-03-12T04:40:21.300Z,8.25
2019-03-12T04:42:50.074Z,8.23
2019-03-12T04:45:18.796Z,8.23
2019-03-12T04:47:47.506Z,8.15
2019-03-12T04:50:16.284Z,8.22
2019-03-12T04:52:44.986Z,8.25
2019-03-12T04:55:15.705Z,8.23
2019-03-12T04:57:44.487Z,8.17
2019-03-12T05:00:18.154Z,8.11
2019-03-12T05:02:46.870Z,8.13
2019-03-12T05:05:15.951Z,8.15
2019-03-12T05:07:44.661Z,8.11
2019-03-12T05:10:16.846Z,8.09
2019-03-12T05:12:45.603Z,8.00
2019-03-12T05:15:19.207Z,7.95
2019-03-12T05:17:47.991Z,7.93
2019-03-12T05:20:17.047Z,7.90
2019-03-12T05:22:45.855Z,7.80
2019-03-12T05:25:15.426Z,7.75
2019-03-12T05:27:44.509Z,7.74
2019-03-12T05:30:20.525Z,7.65
2019-03-12T05:32:49.709Z,7.65
2019-03-12T05:35:18.425Z,7.59
2019-03-12T05:37:47.134Z,7.55
2019-03-12T05:40:16.524Z,7.58
2019-03-12T05:42:45.342Z,7.57
2019-03-12T05:45:18.075Z,7.58
2019-03-12T05:47:46.871Z,7.55
2019-03-12T05:50:21.665Z,7.62
2019-03-12T05:52:50.377Z,7.63
2019-03-12T05:55:19.131Z,7.48
2019-03-12T05:57:47.855Z,7.49
2019-03-12T06:00:21.786Z,7.49
2019-03-12T06:02:51.147Z,7.60
2019-03-12T06:05:19.876Z,7.59
2019-03-12T06:07:48.587Z,7.56
2019-03-12T06:10:17.583Z,7.59
2019-03-12T06:12:46.270Z,7.64
2019-03-12T06:15:18.262Z,7.64
2019-03-12T06:17:47.141Z,7.56
2019-03-12T06:20:16.773Z,7.58
2019-03-12T06:22:45.495Z,7.59
2019-03-12T06:25:15.172Z,7.50
2019-03-12T06:27:43.903Z,7.58
2019-03-12T06:30:17.029Z,7.59
2019-03-12T06:32:47.398Z,7.45
2019-03-12T06:35:17.690Z,7.40
2019-03-12T06:37:47.977Z,7.51
2019-03-12T06:40:24.318Z,7.38
2019-03-12T06:42:54.611Z,7.41
2019-03-12T06:45:34.016Z,7.40
2019-03-12T06:48:19.608Z,7.28
2019-03-12T06:50:53.161Z,7.25
2019-03-12T06:53:23.444Z,7.24
2019-03-12T06:55:56.707Z,7.14
2019-03-12T06:58:27.131Z,7.04
2019-03-12T07:01:03.595Z,6.83
2019-03-12T07:03:33.986Z,6.80
2019-03-12T07:06:10.285Z,6.81
2019-03-12T07:08:40.613Z,6.78
2019-03-12T07:11:10.900Z,6.63
2019-03-12T07:13:41.196Z,6.60
2019-03-12T07:16:11.594Z,6.53
2019-03-12T07:18:58.185Z,6.50
2019-03-12T07:21:34.314Z,6.54
2019-03-12T07:24:13.160Z,6.65
2019-03-12T07:26:48.307Z,6.61
2019-03-12T07:29:30.757Z,6.48
2019-03-12T07:32:13.187Z,6.37
2019-03-12T07:34:55.675Z,6.23
2019-03-12T07:37:26.016Z,6.23
2019-03-12T07:39:56.304Z,6.22
2019-03-12T07:42:35.858Z,6.25
2019-03-12T07:45:12.698Z,6.08
2019-03-12T07:47:59.378Z,6.20
2019-03-12T07:50:44.572Z,6.33
2019-03-12T07:53:14.994Z,6.23
2019-03-12T07:55:48.018Z,6.22
2019-03-12T07:58:35.222Z,6.29
2019-03-12T08:01:02.374Z,6.30
2019-03-12T08:03:35.838Z,6.36
2019-03-12T08:06:06.127Z,6.30
2019-03-12T08:08:36.405Z,6.28
2019-03-12T08:11:07.121Z,6.47
2019-03-12T08:13:37.410Z,6.49
2019-03-12T08:16:10.664Z,6.58
2019-03-12T08:18:41.113Z,6.61
2019-03-12T08:21:22.585Z,6.81
2019-03-12T08:24:13.590Z,6.84
2019-03-12T08:26:43.087Z,6.89
2019-03-12T08:29:25.957Z,6.81
2019-03-12T08:32:08.062Z,6.82
2019-03-12T08:34:48.886Z,7.01
2019-03-12T08:37:25.146Z,7.06
2019-03-12T08:40:04.530Z,7.27
2019-03-12T08:42:37.876Z,7.15
2019-03-12T08:45:15.395Z,7.17
2019-03-12T08:47:46.186Z,7.22
2019-03-12T08:50:28.848Z,7.33
2019-03-12T08:53:02.208Z,7.28
2019-03-12T08:55:39.220Z,7.32
2019-03-12T08:58:09.502Z,7.30
2019-03-12T09:00:49.216Z,7.33
2019-03-12T09:03:28.279Z,7.29
2019-03-12T09:06:15.200Z,7.36
2019-03-12T09:08:45.498Z,7.40
2019-03-12T09:11:15.769Z,7.52
2019-03-12T09:13:48.842Z,7.46
2019-03-12T09:16:31.133Z,7.50
2019-03-12T09:19:07.509Z,7.59
2019-03-12T09:21:37.795Z,7.60
2019-03-12T09:24:11.045Z,7.73
2019-03-12T09:26:57.945Z,7.66
2019-03-12T09:29:44.427Z,7.73
2019-03-12T09:32:20.686Z,7.57
2019-03-12T09:34:53.706Z,7.51
2019-03-12T09:37:30.136Z,7.57
2019-03-12T09:40:09.694Z,7.64
2019-03-12T09:42:52.414Z,7.77
2019-03-12T09:45:22.700Z,7.77
2019-03-12T09:47:56.173Z,7.93
2019-03-12T09:50:29.249Z,8.05
2019-03-12T09:53:02.322Z,8.07
2019-03-12T09:55:35.574Z,8.16
2019-03-12T09:58:14.879Z,8.19
2019-03-12T10:00:45.170Z,8.24
2019-03-12T10:03:18.317Z,8.25
2019-03-12T10:05:48.717Z,8.07
2019-03-12T10:08:36.136Z,8.28
2019-03-12T10:11:23.069Z,8.24
2019-03-12T10:13:53.371Z,8.23
2019-03-12T10:16:39.975Z,8.15
2019-03-12T10:19:13.170Z,8.16
2019-03-12T10:21:49.749Z,8.41
2019-03-12T10:24:36.176Z,8.39
2019-03-12T10:27:09.178Z,8.43
2019-03-12T10:29:45.469Z,8.45
2019-03-12T10:32:15.821Z,8.21
2019-03-12T10:34:46.115Z,8.01
2019-03-12T10:37:31.498Z,7.93
2019-03-12T10:40:06.067Z,7.79
2019-03-12T10:42:39.233Z,7.99
2019-03-12T10:45:17.979Z,8.04
2019-03-12T10:47:51.160Z,7.98
2019-03-12T10:50:19.876Z,7.92
2019-03-12T10:52:48.668Z,7.88
2019-03-12T10:55:17.504Z,7.91
2019-03-12T10:57:46.213Z,7.94
2019-03-12T11:00:19.205Z,7.88
2019-03-12T11:02:48.070Z,7.90
2019-03-12T11:05:17.983Z,7.86
2019-03-12T11:07:46.825Z,7.79
2019-03-12T11:10:18.681Z,7.93
2019-03-12T11:12:47.596Z,7.94
2019-03-12T11:15:17.119Z,8.05
2019-03-12T11:17:50.091Z,7.86
2019-03-12T11:20:18.517Z,7.95
2019-03-12T11:22:47.237Z,7.75
2019-03-12T11:25:26.689Z,7.50
2019-03-12T11:27:46.821Z,7.51
2019-03-12T11:30:17.439Z,7.23
2019-03-12T11:32:46.277Z,7.24
2019-03-12T11:35:15.093Z,7.18
2019-03-12T11:37:43.824Z,7.20
2019-03-12T11:40:31.867Z,7.18
2019-03-12T11:42:58.008Z,7.23
2019-03-12T11:45:36.236Z,7.12
2019-03-12T11:47:57.301Z,6.99
2019-03-12T11:50:26.918Z,6.98
2019-03-12T11:52:59.047Z,6.95
2019-03-12T11:55:26.362Z,6.79
2019-03-12T11:57:55.077Z,6.66
2019-03-12T12:00:26.786Z,6.70
2019-03-12T12:03:00.159Z,6.74
2019-03-12T12:05:26.067Z,6.84
2019-03-12T12:07:54.787Z,6.81
2019-03-12T12:10:23.654Z,6.75
2019-03-12T12:12:52.380Z,6.66
2019-03-12T12:15:21.293Z,6.67
2019-03-12T12:17:50.170Z,6.50
2019-03-12T12:20:28.901Z,6.46
2019-03-12T12:22:49.345Z,6.29
2019-03-12T12:25:21.334Z,6.22
2019-03-12T12:27:50.059Z,6.32
2019-03-12T12:30:22.784Z,6.40
2019-03-12T12:32:51.953Z,6.31
2019-03-12T12:35:20.675Z,6.32
2019-03-12T12:37:49.381Z,6.35
2019-03-12T12:40:19.479Z,6.52
2019-03-12T12:42:48.266Z,6.48
2019-03-12T12:45:25.653Z,6.52
2019-03-12T12:47:54.361Z,6.62
2019-03-12T12:50:23.070Z,6.74
2019-03-12T12:52:52.196Z,6.59
2019-03-12T12:55:21.010Z,6.71
2019-03-12T12:57:49.722Z,6.56
2019-03-12T13:00:26.372Z,6.89
2019-03-12T13:02:55.167Z,6.97
2019-03-12T13:05:23.985Z,6.99
2019-03-12T13:07:57.756Z,6.83
2019-03-12T13:10:28.116Z,6.84
2019-03-12T13:12:56.831Z,7.08
2019-03-12T13:15:25.682Z,7.05
2019-03-12T13:17:54.397Z,6.98
2019-03-12T13:20:23.112Z,7.01
2019-03-12T13:22:52.057Z,6.92
2019-03-12T13:25:21.072Z,6.85
2019-03-12T13:27:49.781Z,7.02
2019-03-12T13:30:21.220Z,7.01
2019-03-12T13:32:49.941Z,7.09
2019-03-12T13:35:19.562Z,6.92
2019-03-12T13:37:51.760Z,6.90
2019-03-12T13:40:24.751Z,7.02
2019-03-12T13:42:54.240Z,7.07
2019-03-12T13:45:28.959Z,6.98
2019-03-12T13:47:57.837Z,6.92
2019-03-12T13:50:27.071Z,6.90
2019-03-12T13:52:55.825Z,6.78
2019-03-12T13:55:24.734Z,6.86
2019-03-12T13:57:53.492Z,6.92
2019-03-12T14:00:23.719Z,7.01
2019-03-12T14:02:52.634Z,7.04
2019-03-12T14:05:21.551Z,7.20
2019-03-12T14:07:50.269Z,7.26
2019-03-12T14:10:21.887Z,7.29
2019-03-12T14:12:52.402Z,7.25
2019-03-12T14:15:32.038Z,7.07
2019-03-12T14:18:01.519Z,7.11
2019-03-12T14:20:54.328Z,7.37
2019-03-12T14:23:26.131Z,7.35
2019-03-12T14:25:54.849Z,7.28
2019-03-12T14:28:23.687Z,7.13
2019-03-12T14:30:52.510Z,7.21
2019-03-12T14:33:21.238Z,7.23
2019-03-12T14:35:51.943Z,7.34
2019-03-12T14:38:20.966Z,7.34
2019-03-12T14:40:49.878Z,7.25
2019-03-12T14:43:18.601Z,7.10
2019-03-12T14:45:54.922Z,7.38
2019-03-12T14:48:44.455Z,7.33
2019-03-12T14:51:37.806Z,7.20
2019-03-12T14:54:09.076Z,7.27
2019-03-12T14:56:37.896Z,7.19
2019-03-12T14:59:07.084Z,7.33
2019-03-12T15:01:35.793Z,7.33
2019-03-12T15:04:05.020Z,7.22
2019-03-12T15:06:33.787Z,7.36
2019-03-12T15:09:02.499Z,7.28
2019-03-12T15:11:31.210Z,7.48
2019-03-12T15:14:00.532Z,7.42
2019-03-12T15:16:29.248Z,7.38
2019-03-12T15:18:57.959Z,7.23
2019-03-12T15:21:26.727Z,7.16
2019-03-12T15:23:55.449Z,7.19
2019-03-12T15:26:24.164Z,7.04
2019-03-12T15:28:52.944Z,7.11
2019-03-12T15:31:21.652Z,7.06
2019-03-12T15:33:50.478Z,6.98
2019-03-12T15:36:19.666Z,6.74
2019-03-12T15:38:48.383Z,6.85
2019-03-12T15:41:17.117Z,6.81
2019-03-12T15:43:46.185Z,6.89
2019-03-12T15:46:14.918Z,6.76
2019-03-12T15:48:43.636Z,6.85
2019-03-12T15:51:12.504Z,6.89
2019-03-12T15:53:41.219Z,6.72
2019-03-12T15:56:10.023Z,6.70
2019-03-12T15:58:38.880Z,6.68
2019-03-12T16:01:07.694Z,6.58
2019-03-12T16:03:36.425Z,6.46
2019-03-12T16:06:05.307Z,6.31
2019-03-12T16:08:34.022Z,6.45
2019-03-12T16:11:02.739Z,6.71
2019-03-12T16:13:31.747Z,6.71
2019-03-12T16:16:00.463Z,6.65
2019-03-12T16:18:29.255Z,6.57
2019-03-12T16:20:58.316Z,6.62
2019-03-12T16:23:27.024Z,6.64
2019-03-12T16:25:55.745Z,6.57
2019-03-12T16:28:24.561Z,6.61
2019-03-12T16:30:53.281Z,6.53
2019-03-12T16:33:21.994Z,6.43
2019-03-12T16:35:50.884Z,6.50
2019-03-12T16:38:19.610Z,6.47
2019-03-12T16:40:48.334Z,6.36
2019-03-12T16:43:17.504Z,6.42
2019-03-12T16:45:46.220Z,6.38
2019-03-12T16:48:14.947Z,6.34
2019-03-12T16:50:43.705Z,6.30
2019-03-12T16:53:12.424Z,6.35
2019-03-12T16:55:41.135Z,6.43
2019-03-12T16:58:10.289Z,6.40
2019-03-12T17:00:39.980Z,6.50
2019-03-12T17:03:08.704Z,6.46
2019-03-12T17:05:37.488Z,6.51
2019-03-12T17:08:06.260Z,6.45
2019-03-12T17:10:34.971Z,6.56
2019-03-12T17:13:03.852Z,6.53
2019-03-12T17:15:32.566Z,6.50
2019-03-12T17:18:02.677Z,6.56
2019-03-12T17:20:31.589Z,6.47
2019-03-12T17:23:00.315Z,6.40
2019-03-12T17:25:29.049Z,6.37
2019-03-12T17:27:57.893Z,6.29
2019-03-12T17:30:26.609Z,6.32
2019-03-12T17:32:55.337Z,6.20
2019-03-12T17:35:37.929Z,6.32
2019-03-12T17:38:06.652Z,6.34
2019-03-12T17:40:35.376Z,6.38
2019-03-12T17:43:04.209Z,6.27
2019-03-12T17:45:32.925Z,6.40
2019-03-12T17:48:01.647Z,6.16
2019-03-12T17:50:30.719Z,6.14
2019-03-12T17:52:59.433Z,6.15
2019-03-12T17:55:28.155Z,6.23
2019-03-12T17:57:56.943Z,6.33
2019-03-12T18:00:39.454Z,6.32
2019-03-12T18:03:08.399Z,6.47
2019-03-12T18:05:37.166Z,6.35
2019-03-12T18:08:05.896Z,6.15
2019-03-12T18:10:34.667Z,6.04
2019-03-12T18:13:03.421Z,6.03
2019-03-12T18:15:32.159Z,6.05
2019-03-12T18:18:01.033Z,6.37
2019-03-12T18:20:29.771Z,6.25
2019-03-12T18:22:58.542Z,6.33
2019-03-12T18:25:35.293Z,6.30
2019-03-12T18:28:04.110Z,6.19
2019-03-12T18:30:32.838Z,6.18
2019-03-12T18:33:01.617Z,6.23
2019-03-12T18:35:30.338Z,6.27
2019-03-12T18:37:59.063Z,6.26
2019-03-12T18:40:29.468Z,6.10
2019-03-12T18:42:58.196Z,6.02
2019-03-12T18:45:29.379Z,5.86
2019-03-12T18:47:58.254Z,5.78
2019-03-12T18:50:26.973Z,5.69
2019-03-12T18:52:55.701Z,5.72
2019-03-12T18:55:37.983Z,5.75
2019-03-12T18:58:07.584Z,5.70
2019-03-12T19:00:37.810Z,5.58
2019-03-12T19:03:06.577Z,5.66
2019-03-12T19:05:35.292Z,5.57
2019-03-12T19:08:04.009Z,5.48
2019-03-12T19:10:33.138Z,5.51
2019-03-12T19:13:01.871Z,5.48
2019-03-12T19:15:30.683Z,5.55
2019-03-12T19:17:59.821Z,5.78
2019-03-12T19:20:28.656Z,5.73
2019-03-12T19:22:57.365Z,5.78
2019-03-12T19:25:29.157Z,5.67
2019-03-12T19:28:00.169Z,5.70
2019-03-12T19:30:28.342Z,5.71
2019-03-12T19:32:58.704Z,5.66
2019-03-12T19:35:28.829Z,5.65
2019-03-12T19:37:58.859Z,5.79
2019-03-12T19:40:36.735Z,5.48
2019-03-12T19:43:05.654Z,5.47
2019-03-12T19:45:34.375Z,5.50
2019-03-12T19:48:04.473Z,5.53
2019-03-12T19:50:33.221Z,5.45
2019-03-12T19:53:01.980Z,5.56
2019-03-12T19:55:42.437Z,5.42
2019-03-12T19:58:11.242Z,5.36
2019-03-12T20:00:39.960Z,5.29
2019-03-12T20:03:12.021Z,5.23
2019-03-12T20:05:39.554Z,5.22
2019-03-12T20:08:08.272Z,5.20
2019-03-12T20:10:51.951Z,5.07
2019-03-12T20:13:41.443Z,5.08
2019-03-12T20:16:33.102Z,5.13
2019-03-12T20:19:10.558Z,5.21
2019-03-12T20:22:00.616Z,5.24
2019-03-12T20:24:51.769Z,5.17
2019-03-12T20:27:29.300Z,5.14
2019-03-12T20:30:20.460Z,5.00
2019-03-12T20:33:19.600Z,5.19
2019-03-12T20:36:06.225Z,5.14
2019-03-12T20:38:57.782Z,4.91
2019-03-12T20:41:38.473Z,5.04
2019-03-12T20:44:26.918Z,4.90
2019-03-12T20:47:31.943Z,4.99
2019-03-12T20:50:09.366Z,4.96
2019-03-12T20:52:50.141Z,4.80
2019-03-12T20:55:55.903Z,4.74
2019-03-12T20:58:59.316Z,4.67
2019-03-12T21:01:48.197Z,4.75
2019-03-12T21:04:36.236Z,4.65
2019-03-12T21:07:27.478Z,4.70
2019-03-12T21:10:21.517Z,4.64
2019-03-12T21:13:14.318Z,4.62
2019-03-12T21:16:14.667Z,4.60
2019-03-12T21:19:15.326Z,4.58
2019-03-12T21:22:14.064Z,4.65
2019-03-12T21:24:46.084Z,4.48
2019-03-12T21:27:26.456Z,4.37
2019-03-12T21:29:54.078Z,4.48
2019-03-12T21:32:22.878Z,4.49
2019-03-12T21:34:51.586Z,4.48
2019-03-12T21:37:20.467Z,4.41
2019-03-12T21:39:55.675Z,4.44
2019-03-12T21:42:19.639Z,4.35
2019-03-12T21:44:48.504Z,4.24
2019-03-12T21:47:17.436Z,4.15
2019-03-12T21:49:46.163Z,4.33
2019-03-12T21:52:15.062Z,4.17
2019-03-12T21:54:43.778Z,4.05
2019-03-12T21:57:12.489Z,4.04
2019-03-12T21:59:41.448Z,4.02
2019-03-12T22:02:10.165Z,4.04
2019-03-12T22:04:38.899Z,4.03
2019-03-12T22:07:07.775Z,4.10
2019-03-12T22:09:36.501Z,4.13
2019-03-12T22:12:05.269Z,4.07
2019-03-12T22:14:34.153Z,4.08
2019-03-12T22:17:03.183Z,4.14
2019-03-12T22:19:31.897Z,4.02
2019-03-12T22:22:02.341Z,4.04
2019-03-12T22:24:31.067Z,4.11
2019-03-12T22:26:59.779Z,4.05
2019-03-12T22:29:28.615Z,3.96
2019-03-12T22:31:57.336Z,4.07
2019-03-12T22:34:26.057Z,3.99
2019-03-12T22:36:54.950Z,3.97
2019-03-12T22:39:23.634Z,4.03
2019-03-12T22:41:52.360Z,3.91
2019-03-12T22:44:21.165Z,3.87
2019-03-12T22:46:49.894Z,3.94
2019-03-12T22:49:18.618Z,3.93
2019-03-12T22:51:49.031Z,3.87
2019-03-12T22:54:17.752Z,3.91
2019-03-12T22:56:46.477Z,3.84
2019-03-12T22:59:15.412Z,3.90
2019-03-12T23:01:44.233Z,3.86
2019-03-12T23:04:12.966Z,3.87
2019-03-12T23:06:41.817Z,3.94
2019-03-12T23:09:10.536Z,3.90
2019-03-12T23:11:39.247Z,4.00
2019-03-12T23:14:08.144Z,4.05
2019-03-12T23:16:36.865Z,4.05
2019-03-12T23:19:05.579Z,3.97
2019-03-12T23:21:34.436Z,3.94
2019-03-12T23:24:03.154Z,3.97
2019-03-12T23:26:31.876Z,3.96
2019-03-12T23:29:00.804Z,3.89
2019-03-12T23:31:29.528Z,3.78
2019-03-12T23:33:58.344Z,3.85
2019-03-12T23:36:27.233Z,3.68
2019-03-12T23:38:55.951Z,3.71
2019-03-12T23:41:24.671Z,3.69
2019-03-12T23:43:53.988Z,3.71
2019-03-12T23:46:22.699Z,3.78
2019-03-12T23:48:51.528Z,3.75
2019-03-12T23:51:20.514Z,3.65
2019-03-12T23:53:49.236Z,3.86
2019-03-12T23:56:17.944Z,3.81
2019-03-12T23:58:46.815Z,3.76
